Time;durP1;ratioP1;P1;durP2;ratioP2;P2;SDS_P1;SDS_P2;PMS_P1;PMS_P2;Temp;Humidity;BMP_temperature;BMP_pressure;BME280_temperature;BME280_humidity;BME280_pressure;Samples;Min_cycle;Max_cycle;Signal;HPM_P1;HPM_P2
2022/06/05 00:00:47;;;;;;;24.77;11.43;;;21.60;97.50;;;;;;5005393;28;20480;-62
2022/06/05 00:03:23;;;;;;;12.50;11.40;;;21.70;97.50;;;;;;5006818;28;20492;-56
2022/06/05 00:05:55;;;;;;;34.33;10.33;;;21.70;97.80;;;;;;5006813;28;20856;-56
2022/06/05 00:08:32;;;;;;;19.50;15.20;;;21.60;97.50;;;;;;5006782;28;20481;-56
2022/06/05 00:11:01;;;;;;;12.30;11.10;;;21.70;97.30;;;;;;5006107;28;20819;-57
2022/06/05 00:13:32;;;;;;;11.60;10.40;;;21.70;97.40;;;;;;5005616;28;21049;-56
2022/06/05 00:15:59;;;;;;;11.03;10.03;;;21.70;97.30;;;;;;5002120;28;20480;-56
2022/06/05 00:18:27;;;;;;;34.60;11.30;;;21.70;97.40;;;;;;5005890;28;20485;-57
2022/06/05 00:20:54;;;;;;;11.13;9.57;;;21.70;97.40;;;;;;5005867;28;20481;-57
2022/06/05 00:23:21;;;;;;;10.80;9.80;;;21.70;97.50;;;;;;5006149;28;20489;-57
2022/06/05 00:25:54;;;;;;;12.23;10.27;;;21.50;97.80;;;;;;5003958;28;20989;-57
2022/06/05 00:28:34;;;;;;;15.37;9.30;;;21.50;98.10;;;;;;5005569;28;20495;-56
2022/06/05 00:31:12;;;;;;;12.03;10.83;;;21.50;98.10;;;;;;5005593;28;21755;-57
2022/06/05 00:33:42;;;;;;;12.00;10.63;;;21.50;98.00;;;;;;5000686;28;20478;-57
2022/06/05 00:36:17;;;;;;;12.13;10.90;;;21.50;97.90;;;;;;4989002;28;20474;-57
2022/06/05 00:38:55;;;;;;;11.77;10.57;;;21.60;98.00;;;;;;4979678;28;21236;-57
2022/06/05 00:41:37;;;;;;;10.77;9.77;;;21.60;98.00;;;;;;4980535;28;20486;-58
2022/06/05 00:44:06;;;;;;;9.87;8.90;;;21.60;98.00;;;;;;4986401;28;20990;-57
2022/06/05 00:46:34;;;;;;;11.17;9.87;;;21.60;98.00;;;;;;4987621;28;20490;-58
2022/06/05 00:49:02;;;;;;;20.73;10.97;;;21.60;98.00;;;;;;4984272;28;20483;-59
2022/06/05 00:51:29;;;;;;;25.87;13.40;;;21.60;98.00;;;;;;4985404;28;20485;-60
2022/06/05 00:53:56;;;;;;;24.60;14.10;;;21.60;98.20;;;;;;5002433;28;21012;-58
2022/06/05 00:56:23;;;;;;;22.20;12.70;;;21.50;98.50;;;;;;5006336;28;20641;-55
2022/06/05 00:58:50;;;;;;;19.33;13.43;;;21.50;98.70;;;;;;5008450;28;20492;-59
2022/06/05 01:01:17;;;;;;;31.67;18.57;;;21.40;98.70;;;;;;5008013;28;20484;-56
2022/06/05 01:03:43;;;;;;;31.20;13.43;;;21.40;99.10;;;;;;5009108;28;20847;-60
2022/06/05 01:06:13;;;;;;;39.73;16.97;;;21.30;99.10;;;;;;5009745;28;20757;-57
2022/06/05 01:08:40;;;;;;;30.13;17.87;;;21.30;99.40;;;;;;5008870;28;20786;-57
2022/06/05 01:11:15;;;;;;;23.80;12.73;;;21.30;99.50;;;;;;5007293;28;20468;-55
2022/06/05 01:13:53;;;;;;;17.63;13.83;;;21.20;99.40;;;;;;4981293;28;20472;-57
2022/06/05 01:16:25;;;;;;;22.77;12.23;;;21.30;99.30;;;;;;4972970;28;20480;-56
2022/06/05 01:19:01;;;;;;;12.77;11.47;;;21.30;99.60;;;;;;5012024;28;20834;-55
2022/06/05 01:22:04;;;;;;;11.40;10.27;;;21.40;99.60;;;;;;5013954;28;20487;-56
2022/06/05 01:24:53;;;;;;;13.70;10.77;;;21.40;99.70;;;;;;4995924;28;21421;-56
2022/06/05 01:27:26;;;;;;;11.43;10.33;;;21.30;99.50;;;;;;4997868;28;20473;-56
2022/06/05 01:30:00;;;;;;;38.77;11.50;;;21.20;99.80;;;;;;5001201;28;20485;-56
2022/06/05 01:32:34;;;;;;;13.23;11.43;;;21.20;99.90;;;;;;5002967;28;20489;-55
2022/06/05 01:35:06;;;;;;;11.73;10.53;;;21.00;99.90;;;;;;5002125;28;20504;-55
2022/06/05 01:37:39;;;;;;;12.70;11.40;;;21.00;99.90;;;;;;5002678;28;20621;-56
2022/06/05 01:40:12;;;;;;;11.27;9.60;;;21.10;99.90;;;;;;5000075;28;20500;-56
2022/06/05 01:42:42;;;;;;;23.60;10.77;;;21.20;99.90;;;;;;5001200;28;20485;-56
2022/06/05 01:45:15;;;;;;;11.63;10.37;;;21.20;99.90;;;;;;5001599;28;20481;-56
2022/06/05 01:47:46;;;;;;;10.57;9.47;;;21.30;99.80;;;;;;5010063;28;20484;-57
2022/06/05 01:50:17;;;;;;;12.30;10.13;;;21.40;99.70;;;;;;5009528;28;20488;-58
2022/06/05 01:52:48;;;;;;;12.40;11.10;;;21.40;99.70;;;;;;5021307;28;20480;-55
2022/06/05 01:55:19;;;;;;;20.00;11.00;;;21.40;99.80;;;;;;5010700;28;20476;-55
2022/06/05 01:57:48;;;;;;;11.07;9.90;;;21.40;99.80;;;;;;5022004;28;21105;-56
2022/06/05 02:00:20;;;;;;;13.10;11.47;;;21.40;99.70;;;;;;4990440;28;20480;-56
2022/06/05 02:02:53;;;;;;;12.10;10.90;;;21.40;99.60;;;;;;5000117;28;20967;-56
2022/06/05 02:05:24;;;;;;;10.87;9.77;;;21.40;99.50;;;;;;4997606;28;20497;-56
2022/06/05 02:07:56;;;;;;;18.50;10.50;;;21.40;99.60;;;;;;5001506;28;20485;-56
2022/06/05 02:10:27;;;;;;;13.73;11.67;;;21.40;99.40;;;;;;5000176;28;20493;-56
2022/06/05 02:12:56;;;;;;;11.83;10.73;;;21.50;99.20;;;;;;4999171;28;20517;-56
2022/06/05 02:15:23;;;;;;;12.60;11.27;;;21.50;99.60;;;;;;4999877;28;20489;-56
2022/06/05 02:17:50;;;;;;;13.50;11.57;;;21.40;99.90;;;;;;4999241;28;20493;-55
2022/06/05 02:20:18;;;;;;;41.10;13.60;;;21.20;99.90;;;;;;5000997;28;21257;-55
2022/06/05 02:22:48;;;;;;;12.93;11.63;;;21.10;99.90;;;;;;4990033;28;20560;-55
2022/06/05 02:25:18;;;;;;;15.20;13.70;;;21.00;99.90;;;;;;5001768;28;20492;-55
2022/06/05 02:27:45;;;;;;;19.83;10.20;;;21.10;99.90;;;;;;4988660;28;20508;-56
2022/06/05 02:30:16;;;;;;;14.77;12.83;;;21.10;99.90;;;;;;5000585;28;20488;-56
2022/06/05 02:32:56;;;;;;;12.73;10.70;;;21.20;99.90;;;;;;5000100;28;20497;-56
2022/06/05 02:35:32;;;;;;;12.90;11.63;;;21.30;99.70;;;;;;4997479;28;20994;-56
2022/06/05 02:38:10;;;;;;;11.20;9.57;;;21.40;99.70;;;;;;5000674;28;20481;-56
2022/06/05 02:40:44;;;;;;;13.20;11.10;;;21.40;99.90;;;;;;5003393;28;20476;-56
2022/06/05 02:43:18;;;;;;;12.70;11.20;;;21.20;99.90;;;;;;5001834;28;20481;-56
2022/06/05 02:45:54;;;;;;;13.17;11.77;;;21.10;99.90;;;;;;4997800;28;20844;-56
2022/06/05 02:48:27;;;;;;;12.97;10.93;;;21.00;99.90;;;;;;4998740;28;20466;-55
2022/06/05 02:50:58;;;;;;;23.40;11.40;;;20.50;99.90;;;;;;4995311;28;20516;-54
2022/06/05 02:53:26;;;;;;;19.10;12.97;;;;;;;;;;4996027;28;20480;-56
2022/06/05 02:55:53;;;;;;;21.10;11.47;;;20.00;99.90;;;;;;5003553;28;20501;-55
2022/06/05 02:58:20;;;;;;;15.13;12.63;;;20.00;99.90;;;;;;4999857;28;20484;-56
2022/06/05 03:03:29;;;;;;;18.13;12.17;;;20.10;99.90;;;;;;4997657;28;20513;-56
2022/06/05 03:05:56;;;;;;;12.83;10.10;;;20.10;99.90;;;;;;5001226;28;21014;-56
2022/06/05 03:08:23;;;;;;;17.80;13.87;;;;;;;;;;5000591;28;20494;-56
2022/06/05 03:10:50;;;;;;;28.53;12.30;;;20.00;99.90;;;;;;4998421;28;20480;-55
2022/06/05 03:13:18;;;;;;;16.00;14.37;;;20.00;99.90;;;;;;4997758;28;20489;-55
2022/06/05 03:15:45;;;;;;;15.47;12.40;;;20.10;99.90;;;;;;4999484;28;20492;-56
2022/06/05 03:18:14;;;;;;;17.83;12.37;;;20.20;99.90;;;;;;4998948;28;20515;-55
2022/06/05 03:20:41;;;;;;;14.17;12.07;;;20.40;99.90;;;;;;4996739;28;20491;-55
2022/06/05 03:23:09;;;;;;;13.43;11.57;;;;;;;;;;4998417;28;20488;-55
2022/06/05 03:25:39;;;;;;;13.43;11.00;;;20.70;99.90;;;;;;5000272;28;20489;-55
2022/06/05 03:28:06;;;;;;;15.53;12.33;;;20.80;99.90;;;;;;5000087;28;20942;-54
2022/06/05 03:30:33;;;;;;;14.20;12.30;;;;;;;;;;4996016;28;20848;-53
2022/06/05 03:32:59;;;;;;;14.73;12.00;;;20.90;99.90;;;;;;4997693;28;20488;-54
2022/06/05 03:35:28;;;;;;;15.17;12.07;;;21.00;99.90;;;;;;4999518;28;20493;-53
2022/06/05 03:37:54;;;;;;;16.47;10.90;;;21.00;99.90;;;;;;5001094;28;20497;-52
2022/06/05 03:40:21;;;;;;;15.87;13.13;;;20.90;99.90;;;;;;4986946;28;21177;-52
2022/06/05 03:42:49;;;;;;;19.47;14.40;;;20.80;99.90;;;;;;4999730;28;20478;-53
2022/06/05 03:45:18;;;;;;;19.60;12.97;;;20.70;99.90;;;;;;4999737;28;20483;-52
2022/06/05 03:47:45;;;;;;;15.20;12.67;;;20.60;99.90;;;;;;4999231;28;20501;-53
2022/06/05 03:50:14;;;;;;;18.77;15.10;;;20.50;99.90;;;;;;4998618;28;20998;-54
2022/06/05 03:52:42;;;;;;;28.90;15.53;;;;;;;;;;4998173;28;20485;-53
2022/06/05 03:55:10;;;;;;;16.30;13.20;;;20.40;99.90;;;;;;4999283;28;20482;-53
2022/06/05 03:57:37;;;;;;;23.97;15.60;;;20.40;99.90;;;;;;4992128;28;20496;-53
2022/06/05 04:00:05;;;;;;;27.10;15.20;;;20.40;99.90;;;;;;5012940;28;20477;-53
2022/06/05 04:02:32;;;;;;;21.73;14.50;;;20.30;99.90;;;;;;4997798;28;20503;-53
2022/06/05 04:05:00;;;;;;;23.53;14.60;;;20.20;99.90;;;;;;4997549;28;20484;-53
2022/06/05 04:07:27;;;;;;;26.40;15.80;;;20.20;99.90;;;;;;4999253;28;21109;-54
2022/06/05 04:09:55;;;;;;;20.43;11.53;;;20.30;99.90;;;;;;4999487;28;20494;-54
2022/06/05 04:12:22;;;;;;;19.20;13.73;;;20.30;99.90;;;;;;4994649;28;20484;-54
2022/06/05 04:14:48;;;;;;;21.37;12.17;;;20.20;99.90;;;;;;4994088;28;20484;-54
2022/06/05 04:17:15;;;;;;;19.73;13.50;;;20.30;99.90;;;;;;4999579;28;20496;-54
2022/06/05 04:19:42;;;;;;;14.07;11.63;;;20.40;99.90;;;;;;4999360;28;20489;-55
2022/06/05 04:22:09;;;;;;;16.53;10.17;;;20.40;99.90;;;;;;4997872;28;20485;-56
2022/06/05 04:24:36;;;;;;;16.20;9.90;;;20.60;99.90;;;;;;4999628;28;20491;-56
2022/06/05 04:27:04;;;;;;;13.53;10.57;;;20.60;99.90;;;;;;4998451;28;20500;-57
2022/06/05 04:29:32;;;;;;;14.40;9.20;;;20.70;99.90;;;;;;4997331;28;20493;-57
2022/06/05 04:31:59;;;;;;;16.53;9.57;;;20.80;99.90;;;;;;5000604;28;20505;-57
2022/06/05 04:34:26;;;;;;;20.50;13.00;;;20.70;99.90;;;;;;5002144;28;20483;-57
2022/06/05 04:36:54;;;;;;;24.17;13.10;;;20.70;99.90;;;;;;5003304;28;20488;-57
2022/06/05 04:39:21;;;;;;;16.73;13.00;;;20.70;99.90;;;;;;5001707;28;20489;-57
2022/06/05 04:41:47;;;;;;;12.47;11.13;;;20.70;99.90;;;;;;5002613;28;20470;-57
2022/06/05 04:44:17;;;;;;;20.13;12.93;;;20.80;99.90;;;;;;4999003;28;20499;-57
2022/06/05 04:46:45;;;;;;;18.60;12.63;;;20.80;99.90;;;;;;5009767;28;20576;-58
2022/06/05 04:49:12;;;;;;;19.80;13.30;;;20.90;99.90;;;;;;4999755;28;20839;-57
2022/06/05 04:51:39;;;;;;;18.63;11.13;;;21.00;99.90;;;;;;5009053;28;20491;-57
2022/06/05 04:54:07;;;;;;;16.03;11.90;;;21.00;99.90;;;;;;5002597;28;20495;-57
2022/06/05 04:56:34;;;;;;;14.60;12.20;;;;;;;;;;5002489;28;20477;-58
2022/06/05 04:59:03;;;;;;;13.53;9.50;;;21.20;99.90;;;;;;5002762;28;20493;-57
2022/06/05 05:01:32;;;;;;;13.73;10.37;;;21.30;99.90;;;;;;5002665;28;20555;-57
2022/06/05 05:04:01;;;;;;;17.40;9.87;;;21.20;99.90;;;;;;4996706;28;20484;-57
2022/06/05 05:06:30;;;;;;;17.23;10.80;;;21.20;99.90;;;;;;5011918;28;20488;-58
2022/06/05 05:08:57;;;;;;;13.10;9.07;;;21.10;99.90;;;;;;5002673;28;20488;-57
2022/06/05 05:11:24;;;;;;;14.10;11.47;;;21.20;99.90;;;;;;5002513;28;21151;-57
2022/06/05 05:13:53;;;;;;;12.10;10.03;;;21.10;99.90;;;;;;5002021;28;20473;-57
2022/06/05 05:16:20;;;;;;;14.30;11.67;;;21.10;99.90;;;;;;5002540;28;20485;-57
2022/06/05 05:18:48;;;;;;;29.37;11.90;;;21.10;99.90;;;;;;5001678;28;20485;-57
2022/06/05 05:21:17;;;;;;;16.77;12.00;;;21.10;99.90;;;;;;4993825;28;20489;-58
2022/06/05 05:23:44;;;;;;;11.53;10.00;;;21.10;99.90;;;;;;5015049;28;21017;-58
2022/06/05 05:26:13;;;;;;;13.50;9.47;;;21.10;99.90;;;;;;5001470;28;20525;-58
2022/06/05 05:28:41;;;;;;;12.70;10.30;;;21.20;99.90;;;;;;5000642;28;20474;-58
2022/06/05 05:31:09;;;;;;;17.20;10.43;;;;;;;;;;4997102;28;20917;-57
2022/06/05 05:33:36;;;;;;;16.30;10.33;;;21.20;99.90;;;;;;5001683;28;20991;-58
2022/06/05 05:36:05;;;;;;;11.27;9.17;;;21.20;99.90;;;;;;5001313;28;20500;-58
2022/06/05 05:38:32;;;;;;;14.30;10.70;;;;;;;;;;5001282;28;20493;-58
2022/06/05 05:43:43;;;;;;;12.70;10.27;;;21.40;99.90;;;;;;4999121;28;20535;-58
2022/06/05 05:46:10;;;;;;;19.97;12.40;;;21.40;99.90;;;;;;5000081;28;20489;-58
2022/06/05 05:48:37;;;;;;;13.33;10.90;;;21.40;99.90;;;;;;5000962;28;21248;-56
2022/06/05 05:51:10;;;;;;;11.10;9.40;;;;;;;;;;5000686;28;20496;-57
2022/06/05 05:53:37;;;;;;;12.07;10.40;;;21.50;99.90;;;;;;4997948;28;20492;-57
2022/06/05 05:56:08;;;;;;;13.90;10.20;;;21.60;99.90;;;;;;4999405;28;20488;-57
2022/06/05 05:58:35;;;;;;;18.37;11.30;;;21.60;99.90;;;;;;4998750;28;20477;-57
2022/06/05 06:01:02;;;;;;;15.90;10.70;;;;;;;;;;5002787;28;20525;-57
2022/06/05 06:03:29;;;;;;;16.93;10.37;;;21.80;99.90;;;;;;5002925;28;20970;-58
2022/06/05 06:05:58;;;;;;;18.57;10.80;;;21.80;99.90;;;;;;5016185;28;20472;-58
2022/06/05 06:08:26;;;;;;;15.30;11.40;;;21.90;99.90;;;;;;5019682;28;21414;-57
2022/06/05 06:10:53;;;;;;;14.17;11.60;;;21.90;99.90;;;;;;5018210;28;20986;-58
2022/06/05 06:13:20;;;;;;;28.30;14.80;;;21.90;99.90;;;;;;5018284;28;20512;-59
2022/06/05 06:15:47;;;;;;;12.83;10.97;;;21.90;99.90;;;;;;5018899;28;20481;-62
2022/06/05 06:18:15;;;;;;;16.33;13.67;;;21.90;99.90;;;;;;5020267;28;20848;-59
2022/06/05 06:20:43;;;;;;;12.80;10.30;;;21.90;99.90;;;;;;5018993;28;20496;-63
2022/06/05 06:23:09;;;;;;;16.80;10.67;;;21.90;99.90;;;;;;5020214;28;20498;-59
2022/06/05 06:25:38;;;;;;;13.37;10.50;;;21.90;99.90;;;;;;5019833;28;20495;-59
2022/06/05 06:28:06;;;;;;;28.77;10.80;;;22.00;99.90;;;;;;5020925;28;20831;-60
2022/06/05 06:30:33;;;;;;;11.60;9.50;;;22.00;99.90;;;;;;5018507;28;20497;-60
2022/06/05 06:33:00;;;;;;;11.60;10.20;;;22.10;99.90;;;;;;5020642;28;20484;-59
2022/06/05 06:35:27;;;;;;;17.83;10.10;;;22.00;99.90;;;;;;5014945;28;20468;-60
2022/06/05 06:37:54;;;;;;;14.33;9.97;;;21.80;99.90;;;;;;5026910;28;20495;-59
2022/06/05 06:40:21;;;;;;;13.93;12.20;;;21.70;99.90;;;;;;5018322;28;20491;-59
2022/06/05 06:42:49;;;;;;;17.63;10.97;;;21.70;99.90;;;;;;5020585;28;20476;-59
2022/06/05 06:45:16;;;;;;;13.53;11.20;;;21.80;99.90;;;;;;5016165;28;20843;-59
2022/06/05 06:47:43;;;;;;;12.00;10.37;;;21.90;99.90;;;;;;5020499;28;20485;-57
2022/06/05 06:50:10;;;;;;;21.50;10.43;;;;;;;;;;5014502;28;20476;-57
2022/06/05 06:52:37;;;;;;;17.97;10.40;;;22.70;99.90;;;;;;5019228;28;20733;-58
2022/06/05 06:55:07;;;;;;;12.23;10.40;;;22.00;99.90;;;;;;5012622;28;20904;-58
2022/06/05 06:57:34;;;;;;;19.50;11.00;;;;;;;;;;5020138;28;20476;-58
2022/06/05 07:00:02;;;;;;;18.47;9.83;;;22.10;99.90;;;;;;5016127;28;20465;-58
2022/06/05 07:02:29;;;;;;;19.60;10.33;;;22.20;99.90;;;;;;5016049;28;20847;-58
2022/06/05 07:04:55;;;;;;;19.00;10.20;;;22.20;99.90;;;;;;5017037;28;20514;-59
2022/06/05 07:07:22;;;;;;;14.93;11.03;;;22.30;99.90;;;;;;5014859;28;21003;-60
2022/06/05 07:09:49;;;;;;;9.97;8.80;;;22.40;99.90;;;;;;5019077;28;20484;-60
2022/06/05 07:12:17;;;;;;;14.83;9.67;;;22.60;99.90;;;;;;5020106;28;20484;-59
2022/06/05 07:14:44;;;;;;;13.33;10.60;;;;;;;;;;5019849;28;21024;-60
2022/06/05 07:17:12;;;;;;;12.37;11.07;;;22.90;99.90;;;;;;5018304;28;20472;-59
2022/06/05 07:19:39;;;;;;;18.83;9.93;;;23.00;99.90;;;;;;5010792;28;20497;-60
2022/06/05 07:22:06;;;;;;;14.70;9.70;;;23.10;99.90;;;;;;5036279;28;20525;-59
2022/06/05 07:24:33;;;;;;;13.10;10.03;;;23.30;99.90;;;;;;5008256;28;20495;-60
2022/06/05 07:26:59;;;;;;;19.33;9.37;;;23.50;99.90;;;;;;5010034;28;20492;-59
2022/06/05 07:29:26;;;;;;;12.87;10.90;;;23.60;99.90;;;;;;4988935;28;20497;-59
2022/06/05 07:31:53;;;;;;;12.43;10.30;;;23.80;99.90;;;;;;4997696;28;20496;-59
2022/06/05 07:34:21;;;;;;;15.80;9.60;;;23.90;99.90;;;;;;4995355;28;20497;-60
2022/06/05 07:36:48;;;;;;;13.30;9.37;;;24.00;99.90;;;;;;5013511;28;20977;-60
2022/06/05 07:39:15;;;;;;;19.83;14.57;;;24.00;99.90;;;;;;5015724;28;20485;-60
2022/06/05 07:41:42;;;;;;;19.47;10.67;;;24.00;99.80;;;;;;5016021;28;20569;-61
2022/06/05 07:44:09;;;;;;;10.60;9.50;;;23.90;99.30;;;;;;4999739;28;20513;-61
2022/06/05 07:46:36;;;;;;;10.67;9.57;;;23.90;99.50;;;;;;4995631;28;20979;-61
2022/06/05 07:49:04;;;;;;;19.13;9.20;;;23.80;99.50;;;;;;5025843;28;20970;-61
2022/06/05 07:54:29;;;;;;;16.07;9.50;;;23.70;99.90;;;;;;5008894;28;20487;-61
2022/06/05 07:56:57;;;;;;;21.03;9.50;;;23.80;99.90;;;;;;5018172;28;20475;-61
2022/06/05 07:59:24;;;;;;;10.73;9.63;;;;;;;;;;5000763;28;20482;-61
2022/06/05 08:01:51;;;;;;;11.23;9.13;;;23.90;99.90;;;;;;4996905;28;20484;-61
2022/06/05 08:04:18;;;;;;;12.73;10.77;;;24.00;99.90;;;;;;5026359;28;20987;-61
2022/06/05 08:06:47;;;;;;;13.90;9.50;;;24.00;99.80;;;;;;5003283;28;20473;-60
2022/06/05 08:09:14;;;;;;;12.93;11.60;;;24.00;99.80;;;;;;5002212;28;21009;-60
2022/06/05 08:11:45;;;;;;;11.53;9.17;;;24.00;99.50;;;;;;5022777;28;22745;-60
2022/06/05 08:14:12;;;;;;;15.73;10.57;;;24.00;99.60;;;;;;5019121;28;20489;-60
2022/06/05 08:16:39;;;;;;;13.90;11.37;;;24.80;99.90;;;;;;5022969;28;21299;-58
2022/06/05 08:19:07;;;;;;;11.67;9.50;;;24.00;99.70;;;;;;5022939;28;20571;-60
2022/06/05 08:21:34;;;;;;;16.00;10.27;;;;;;;;;;5022844;28;20487;-58
2022/06/05 08:24:04;;;;;;;9.83;8.80;;;24.10;99.90;;;;;;5021669;28;20489;-58
2022/06/05 08:26:31;;;;;;;10.70;9.10;;;24.10;99.90;;;;;;5018447;28;20982;-58
2022/06/05 08:28:58;;;;;;;14.53;8.67;;;24.10;99.80;;;;;;5023821;28;20488;-58
2022/06/05 08:31:24;;;;;;;12.30;10.20;;;24.00;99.30;;;;;;5017681;28;20476;-58
2022/06/05 08:33:51;;;;;;;10.20;9.30;;;24.00;99.90;;;;;;5022605;28;20476;-57
2022/06/05 08:36:18;;;;;;;12.80;8.57;;;23.80;99.90;;;;;;5021354;28;20480;-57
2022/06/05 08:41:51;;;;;;;18.23;8.30;;;23.50;99.90;;;;;;5021668;28;20503;-57
2022/06/05 08:44:37;;;;;;;14.03;12.70;;;23.20;99.90;;;;;;5019714;28;21213;-59
2022/06/05 08:47:10;;;;;;;10.87;9.97;;;23.10;99.90;;;;;;5023014;28;21271;-56
2022/06/05 08:49:41;;;;;;;8.60;7.80;;;;;;;;;;5021223;28;20994;-55
2022/06/05 08:52:27;;;;;;;10.07;9.20;;;22.90;99.90;;;;;;5022041;28;20488;-57
2022/06/05 08:55:01;;;;;;;11.63;10.50;;;23.10;99.90;;;;;;5017291;28;20542;-56
2022/06/05 08:57:34;;;;;;;12.60;9.63;;;23.10;99.90;;;;;;5019452;28;20515;-58
2022/06/05 09:00:09;;;;;;;10.07;9.17;;;23.20;99.90;;;;;;5021909;28;20998;-57
2022/06/05 09:02:46;;;;;;;13.40;10.43;;;23.20;99.90;;;;;;5017533;28;20575;-57
2022/06/05 09:05:20;;;;;;;11.60;10.50;;;23.10;99.90;;;;;;5020321;28;20562;-56
2022/06/05 09:07:49;;;;;;;12.80;9.60;;;23.10;99.90;;;;;;5019207;28;20488;-57
2022/06/05 09:10:20;;;;;;;12.50;11.30;;;23.20;99.90;;;;;;5020945;28;21017;-57
2022/06/05 09:12:51;;;;;;;13.17;10.03;;;23.10;99.90;;;;;;5020591;28;20484;-56
2022/06/05 09:15:25;;;;;;;15.63;12.83;;;23.10;99.90;;;;;;5021549;28;20479;-56
2022/06/05 09:17:55;;;;;;;9.30;8.40;;;22.90;99.90;;;;;;5002209;28;20489;-59
2022/06/05 09:20:27;;;;;;;11.83;9.40;;;22.70;99.90;;;;;;5001729;28;20496;-55
2022/06/05 09:22:59;;;;;;;11.13;10.13;;;22.60;99.90;;;;;;5000240;28;20477;-55
2022/06/05 09:25:46;;;;;;;15.07;9.73;;;22.50;99.90;;;;;;4996337;28;21055;-56
2022/06/05 09:28:42;;;;;;;12.07;9.07;;;22.60;99.90;;;;;;5001279;28;20482;-54
2022/06/05 09:31:27;;;;;;;8.60;7.70;;;22.60;99.90;;;;;;4991982;28;20477;-55
2022/06/05 09:33:55;;;;;;;8.73;6.77;;;22.80;99.90;;;;;;4992665;28;21366;-52
2022/06/05 09:36:26;;;;;;;8.20;7.30;;;22.90;99.90;;;;;;4999022;28;20478;-55
2022/06/05 09:38:58;;;;;;;14.13;6.17;;;22.90;99.90;;;;;;4996203;28;20478;-55
2022/06/05 09:41:37;;;;;;;9.80;6.40;;;22.90;99.90;;;;;;4986266;28;20489;-52
2022/06/05 09:44:19;;;;;;;9.10;5.80;;;22.90;99.90;;;;;;4983437;28;20882;-64
2022/06/05 09:46:57;;;;;;;5.50;5.00;;;22.90;99.90;;;;;;5000059;28;20490;-54
2022/06/05 09:49:32;;;;;;;5.40;4.87;;;22.90;99.90;;;;;;5005362;28;20600;-56
2022/06/05 09:52:09;;;;;;;4.07;2.77;;;22.90;99.90;;;;;;4992653;28;20600;-54
2022/06/05 09:54:46;;;;;;;4.17;3.87;;;22.90;99.90;;;;;;5002709;28;20896;-55
2022/06/05 10:00:15;;;;;;;19.73;5.67;;;23.10;99.90;;;;;;5000643;28;20488;-58
2022/06/05 10:02:44;;;;;;;5.27;4.60;;;23.10;99.90;;;;;;5000889;28;21119;-56
2022/06/05 10:05:16;;;;;;;6.20;5.10;;;23.40;99.90;;;;;;5000959;28;20592;-58
2022/06/05 10:07:49;;;;;;;4.13;3.73;;;23.60;99.90;;;;;;4997259;28;20492;-55
2022/06/05 10:10:19;;;;;;;6.00;5.43;;;23.60;99.90;;;;;;5000460;28;20576;-54
2022/06/05 10:12:51;;;;;;;5.40;4.00;;;23.70;99.90;;;;;;5000804;28;20842;-55
2022/06/05 10:15:23;;;;;;;6.03;5.53;;;23.70;99.90;;;;;;4998932;28;20478;-54
2022/06/05 10:17:53;;;;;;;5.93;4.10;;;23.60;99.90;;;;;;5001691;28;20470;-57
2022/06/05 10:20:57;;;;;;;6.03;4.80;;;23.60;99.90;;;;;;5001098;28;21136;-54
2022/06/05 10:23:48;;;;;;;8.80;4.63;;;23.60;99.90;;;;;;4998263;28;20469;-53
2022/06/05 10:26:24;;;;;;;4.90;4.50;;;23.60;99.90;;;;;;4998317;28;20485;-57
2022/06/05 10:28:54;;;;;;;5.53;3.30;;;23.70;99.90;;;;;;4992369;28;20493;-54
2022/06/05 10:31:28;;;;;;;7.40;6.80;;;23.90;99.90;;;;;;4999199;28;20482;-55
2022/06/05 10:34:04;;;;;;;9.23;1.80;;;24.00;98.50;;;;;;5002097;28;20475;-60
2022/06/05 10:36:45;;;;;;;2.70;2.50;;;23.90;97.90;;;;;;5001092;28;20979;-59
2022/06/05 10:39:16;;;;;;;10.20;3.60;;;23.90;98.00;;;;;;4998194;28;21030;-57
2022/06/05 10:41:48;;;;;;;4.87;3.70;;;23.90;97.70;;;;;;4991760;28;20959;-58
2022/06/05 10:44:23;;;;;;;3.70;3.37;;;23.80;97.90;;;;;;4999232;28;20492;-54
2022/06/05 10:47:06;;;;;;;4.63;4.23;;;23.80;98.10;;;;;;5001590;28;20481;-53
2022/06/05 10:49:39;;;;;;;9.83;2.60;;;23.80;97.60;;;;;;4990349;28;20778;-56
2022/06/05 10:52:18;;;;;;;4.20;2.97;;;23.90;97.90;;;;;;4996770;28;20477;-58
2022/06/05 10:54:52;;;;;;;6.83;3.67;;;23.80;97.80;;;;;;4999036;28;21052;-52
2022/06/05 10:57:24;;;;;;;2.70;2.50;;;23.70;96.90;;;;;;4996946;28;20485;-53
2022/06/05 11:00:00;;;;;;;2.73;2.53;;;23.60;97.20;;;;;;4998321;28;20524;-54
2022/06/05 11:02:51;;;;;;;3.60;3.30;;;23.50;97.30;;;;;;5000771;28;20504;-59
2022/06/05 11:05:55;;;;;;;3.37;3.17;;;23.50;97.80;;;;;;5001708;28;20474;-55
2022/06/05 11:08:30;;;;;;;3.03;2.73;;;23.60;98.60;;;;;;4992925;28;20508;-54
2022/06/05 11:14:04;;;;;;;4.10;2.43;;;23.40;98.20;;;;;;5000239;28;21041;-56
2022/06/05 11:16:38;;;;;;;7.33;2.40;;;23.40;98.10;;;;;;5009896;28;20573;-54
2022/06/05 11:19:22;;;;;;;7.83;2.90;;;23.60;97.60;;;;;;4994729;28;20483;-58
2022/06/05 11:21:51;;;;;;;3.90;3.03;;;23.80;99.10;;;;;;5002068;28;21088;-56
2022/06/05 11:24:24;;;;;;;9.20;2.80;;;24.40;98.00;;;;;;5000666;28;21015;-56
2022/06/05 11:26:57;;;;;;;6.53;2.67;;;24.60;96.50;;;;;;4997147;28;20500;-57
2022/06/05 11:29:31;;;;;;;3.10;2.90;;;24.60;95.00;;;;;;4998316;28;20478;-57
2022/06/05 11:32:16;;;;;;;3.13;2.83;;;24.80;95.80;;;;;;4999796;28;20484;-59
2022/06/05 11:34:53;;;;;;;12.40;3.17;;;24.60;95.60;;;;;;4987388;28;20846;-55
2022/06/05 11:37:35;;;;;;;2.27;1.90;;;24.60;95.30;;;;;;4999005;28;20621;-59
2022/06/05 11:40:15;;;;;;;7.53;2.90;;;24.50;95.60;;;;;;4993605;28;20734;-55
2022/06/05 11:42:51;;;;;;;3.20;3.00;;;24.40;95.30;;;;;;4996822;28;20473;-57
2022/06/05 11:45:34;;;;;;;7.60;2.37;;;24.10;95.40;;;;;;4998637;28;20481;-57
2022/06/05 11:48:08;;;;;;;2.80;2.23;;;24.10;96.00;;;;;;4996104;28;20504;-56
2022/06/05 11:50:43;;;;;;;10.90;2.37;;;24.00;96.50;;;;;;4999402;28;20489;-51
2022/06/05 11:53:17;;;;;;;6.70;2.83;;;24.20;97.20;;;;;;4988001;28;20491;-56
2022/06/05 11:55:51;;;;;;;10.03;2.60;;;24.30;96.40;;;;;;4999815;28;20459;-53
2022/06/05 11:58:23;;;;;;;4.20;3.80;;;24.40;95.90;;;;;;4999217;28;20512;-52
2022/06/05 12:00:54;;;;;;;8.97;3.87;;;24.30;96.40;;;;;;4998729;28;21239;-53
2022/06/05 12:03:26;;;;;;;3.70;2.80;;;23.90;96.60;;;;;;5000039;28;20501;-56
2022/06/05 12:06:02;;;;;;;3.37;2.67;;;23.60;97.60;;;;;;4996052;28;20486;-54
2022/06/05 12:08:33;;;;;;;3.57;3.27;;;23.20;98.20;;;;;;4997904;28;20832;-53
2022/06/05 12:11:05;;;;;;;3.50;3.20;;;22.80;99.00;;;;;;4999391;28;20474;-58
2022/06/05 12:13:53;;;;;;;32.53;4.10;;;22.40;99.30;;;;;;4998678;28;20490;-57
2022/06/05 12:16:32;;;;;;;8.20;4.57;;;21.90;99.90;;;;;;4999929;28;20474;-59
2022/06/05 12:19:07;;;;;;;7.67;3.43;;;21.70;99.90;;;;;;4998240;28;20975;-56
2022/06/05 12:21:52;;;;;;;5.83;3.50;;;21.50;99.90;;;;;;4999452;28;20483;-58
2022/06/05 12:24:25;;;;;;;5.50;2.50;;;21.50;99.90;;;;;;4999275;28;20469;-58
2022/06/05 12:26:55;;;;;;;4.43;3.97;;;21.50;99.90;;;;;;4998853;28;20485;-58
2022/06/05 12:29:30;;;;;;;6.43;3.30;;;21.50;99.90;;;;;;4995813;28;20828;-56
2022/06/05 12:32:03;;;;;;;5.20;2.47;;;21.50;99.90;;;;;;4995991;28;20496;-57
2022/06/05 12:34:40;;;;;;;2.50;2.30;;;21.70;99.90;;;;;;5004251;28;20482;-59
2022/06/05 12:37:19;;;;;;;2.40;1.87;;;21.90;99.90;;;;;;4986777;28;20470;-53
2022/06/05 12:39:49;;;;;;;3.33;2.60;;;22.10;99.90;;;;;;4988681;28;20477;-55
2022/06/05 12:42:26;;;;;;;5.40;5.00;;;22.30;99.90;;;;;;4999429;28;20497;-55
2022/06/05 12:44:54;;;;;;;3.37;2.83;;;22.50;99.90;;;;;;4999293;28;20485;-53
2022/06/05 12:47:36;;;;;;;4.40;4.00;;;22.90;99.90;;;;;;4998255;28;20852;-54
2022/06/05 12:50:18;;;;;;;4.10;2.33;;;23.30;99.90;;;;;;4998072;28;20514;-51
2022/06/05 12:52:53;;;;;;;2.83;2.60;;;23.50;99.90;;;;;;4991202;28;21183;-54
2022/06/05 12:55:29;;;;;;;4.83;3.87;;;23.70;98.90;;;;;;5004035;28;20476;-52
2022/06/05 12:58:02;;;;;;;2.30;2.10;;;23.70;98.50;;;;;;5001410;28;20500;-53
2022/06/05 13:00:41;;;;;;;3.03;1.97;;;23.70;99.90;;;;;;4999467;28;20489;-59
2022/06/05 13:03:19;;;;;;;2.50;2.30;;;23.60;97.80;;;;;;4991401;28;21402;-52
2022/06/05 13:05:50;;;;;;;3.97;3.67;;;23.60;98.10;;;;;;4991855;28;20612;-53
2022/06/05 13:08:26;;;;;;;10.60;3.83;;;23.70;97.90;;;;;;5002279;28;20498;-53
2022/06/05 13:11:02;;;;;;;4.63;3.00;;;23.80;98.70;;;;;;4996006;28;20488;-53
2022/06/05 13:13:43;;;;;;;11.43;2.90;;;23.90;98.10;;;;;;4998032;28;21314;-52
2022/06/05 13:16:23;;;;;;;3.50;3.20;;;24.00;98.00;;;;;;5011978;28;20964;-55